createdAt,value
2019-01-25T00:00:52.015Z,24.47
2019-01-25T00:03:17.942Z,24.77
2019-01-25T00:05:43.942Z,23.87
2019-01-25T00:08:10.468Z,23.17
2019-01-25T00:10:36.398Z,21.77
2019-01-25T00:13:02.827Z,20.93
2019-01-25T00:15:28.788Z,21.27
2019-01-25T00:17:54.819Z,20.70
2019-01-25T00:20:20.740Z,19.90
2019-01-25T00:22:46.702Z,19.00
2019-01-25T00:25:13.642Z,20.27
2019-01-25T00:27:40.079Z,20.10
2019-01-25T00:30:12.135Z,19.50
2019-01-25T00:32:38.140Z,19.10
2019-01-25T00:35:06.657Z,17.60
2019-01-25T00:37:32.719Z,41.83
2019-01-25T00:40:05.977Z,18.13
2019-01-25T00:42:27.201Z,17.20
2019-01-25T00:44:53.168Z,17.47
2019-01-25T00:47:19.102Z,17.77
2019-01-25T00:49:45.223Z,18.70
2019-01-25T00:52:11.371Z,18.63
2019-01-25T00:54:37.708Z,19.10
2019-01-25T00:57:03.640Z,19.90
2019-01-25T00:59:29.602Z,20.50
2019-01-25T01:01:55.526Z,19.53
2019-01-25T01:04:21.452Z,19.53
2019-01-25T01:06:47.399Z,20.13
2019-01-25T01:09:13.364Z,21.33
2019-01-25T01:11:39.251Z,20.17
2019-01-25T01:14:05.451Z,20.67
2019-01-25T01:16:31.882Z,21.63
2019-01-25T01:18:59.720Z,22.63
2019-01-25T01:21:25.682Z,21.23
2019-01-25T01:23:51.606Z,22.57
2019-01-25T01:26:18.638Z,22.07
2019-01-25T01:28:44.605Z,23.40
2019-01-25T01:31:10.526Z,24.93
2019-01-25T01:33:36.512Z,23.93
2019-01-25T01:36:03.584Z,22.93
2019-01-25T01:38:29.518Z,24.17
2019-01-25T01:40:55.443Z,23.90
2019-01-25T01:43:21.503Z,25.37
2019-01-25T01:45:47.511Z,24.43
2019-01-25T01:48:13.666Z,24.50
2019-01-25T01:50:40.619Z,24.13
2019-01-25T01:53:06.551Z,24.80
2019-01-25T01:55:32.472Z,26.07
2019-01-25T01:57:58.479Z,25.57
2019-01-25T02:00:25.121Z,25.07
2019-01-25T02:02:51.647Z,23.97
2019-01-25T02:05:17.907Z,24.67
2019-01-25T02:07:44.137Z,23.30
2019-01-25T02:10:13.671Z,23.97
2019-01-25T02:12:39.638Z,22.83
2019-01-25T02:15:08.174Z,22.97
2019-01-25T02:17:34.097Z,23.30
2019-01-25T02:20:00.117Z,22.93
2019-01-25T02:22:26.105Z,22.60
2019-01-25T02:24:52.227Z,23.20
2019-01-25T02:27:18.216Z,20.37
2019-01-25T02:29:44.135Z,19.70
2019-01-25T02:32:10.065Z,20.33
2019-01-25T02:34:36.094Z,19.77
2019-01-25T02:37:02.319Z,18.60
2019-01-25T02:39:28.240Z,20.03
2019-01-25T02:41:55.007Z,17.73
2019-01-25T02:44:20.943Z,18.73
2019-01-25T02:46:46.863Z,18.20
2019-01-25T02:49:12.824Z,18.77
2019-01-25T02:51:38.753Z,18.90
2019-01-25T02:54:05.588Z,18.90
2019-01-25T02:56:31.541Z,19.77
2019-01-25T02:58:57.472Z,18.27
2019-01-25T03:01:23.392Z,17.30
2019-01-25T03:03:49.380Z,19.17
2019-01-25T03:06:15.312Z,19.17
2019-01-25T03:08:41.227Z,19.63
2019-01-25T03:11:08.686Z,19.47
2019-01-25T03:13:34.615Z,21.70
2019-01-25T03:16:00.539Z,21.27
2019-01-25T03:18:26.502Z,19.03
2019-01-25T03:20:52.726Z,20.40
2019-01-25T03:23:19.585Z,20.80
2019-01-25T03:25:46.072Z,20.90
2019-01-25T03:28:11.993Z,20.87
2019-01-25T03:30:37.921Z,20.20
2019-01-25T03:33:04.231Z,19.40
2019-01-25T03:35:30.409Z,21.00
2019-01-25T03:37:56.833Z,19.90
2019-01-25T03:40:24.801Z,20.87
2019-01-25T03:42:50.722Z,22.00
2019-01-25T03:45:17.242Z,20.53
2019-01-25T03:47:43.235Z,20.00
2019-01-25T03:50:21.248Z,19.83
2019-01-25T03:52:47.410Z,19.83
2019-01-25T03:55:14.339Z,20.00
2019-01-25T03:57:40.287Z,18.83
2019-01-25T04:00:15.632Z,19.23
2019-01-25T04:02:41.997Z,18.77
2019-01-25T04:05:10.717Z,19.30
2019-01-25T04:07:37.307Z,19.57
2019-01-25T04:10:07.045Z,19.30
2019-01-25T04:12:33.674Z,19.20
2019-01-25T04:14:59.636Z,20.00
2019-01-25T04:17:25.862Z,21.77
2019-01-25T04:19:51.788Z,26.40
2019-01-25T04:22:18.758Z,27.63
2019-01-25T04:24:44.678Z,25.07
2019-01-25T04:27:10.605Z,26.30
2019-01-25T04:29:36.594Z,24.63
2019-01-25T04:32:04.856Z,23.83
2019-01-25T04:34:30.787Z,24.27
2019-01-25T04:36:57.675Z,23.70
2019-01-25T04:39:23.600Z,24.00
2019-01-25T04:41:51.031Z,23.17
2019-01-25T04:44:17.014Z,22.00
2019-01-25T04:46:42.944Z,22.33
2019-01-25T04:49:08.930Z,24.40
2019-01-25T04:51:34.957Z,23.47
2019-01-25T04:54:00.880Z,22.10
2019-01-25T04:56:28.712Z,23.60
2019-01-25T04:58:55.002Z,22.80
2019-01-25T05:01:20.936Z,23.70
2019-01-25T05:03:46.871Z,27.37
2019-01-25T05:06:15.140Z,30.93
2019-01-25T05:08:41.094Z,34.13
2019-01-25T05:11:19.912Z,35.63
2019-01-25T05:13:43.507Z,35.70
2019-01-25T05:16:12.248Z,36.50
2019-01-25T05:18:38.247Z,39.73
2019-01-25T05:21:05.861Z,40.33
2019-01-25T05:23:31.783Z,41.17
2019-01-25T05:25:57.710Z,41.50
2019-01-25T05:28:23.670Z,40.93
2019-01-25T05:30:55.143Z,42.80
2019-01-25T05:33:21.078Z,42.17
2019-01-25T05:35:47.261Z,47.27
2019-01-25T05:38:13.368Z,48.20
2019-01-25T05:40:39.304Z,47.10
2019-01-25T05:43:05.265Z,48.70
2019-01-25T05:45:31.201Z,49.40
2019-01-25T05:47:57.126Z,50.37
2019-01-25T05:50:23.071Z,51.17
2019-01-25T05:52:49.217Z,52.73
2019-01-25T05:55:17.565Z,57.33
2019-01-25T05:57:44.262Z,60.17
2019-01-25T06:00:11.191Z,63.53
2019-01-25T06:02:37.336Z,60.13
2019-01-25T06:05:05.159Z,56.87
2019-01-25T06:07:31.089Z,57.57
2019-01-25T06:09:57.011Z,63.13
2019-01-25T06:12:22.973Z,65.00
2019-01-25T06:14:49.121Z,65.87
2019-01-25T06:17:15.044Z,65.40
2019-01-25T06:19:41.059Z,71.10
2019-01-25T06:22:07.102Z,77.80
2019-01-25T06:24:33.046Z,82.53
2019-01-25T06:27:00.036Z,77.90
2019-01-25T06:29:29.375Z,74.70
2019-01-25T06:31:55.330Z,73.97
2019-01-25T06:34:21.694Z,70.07
2019-01-25T06:36:47.618Z,67.60
2019-01-25T06:39:13.623Z,62.60
2019-01-25T06:41:44.045Z,56.23
2019-01-25T06:44:07.470Z,48.87
2019-01-25T06:46:35.016Z,46.67
2019-01-25T06:49:00.987Z,46.70
2019-01-25T06:51:27.152Z,40.93
2019-01-25T06:53:53.395Z,39.17
2019-01-25T06:56:20.123Z,38.93
2019-01-25T06:58:48.035Z,69.77
2019-01-25T07:01:15.963Z,37.60
2019-01-25T07:03:42.140Z,27.30
2019-01-25T07:06:08.375Z,24.73
2019-01-25T07:08:35.208Z,25.90
2019-01-25T07:11:01.235Z,28.60
2019-01-25T07:13:27.308Z,32.70
2019-01-25T07:15:53.188Z,26.17
2019-01-25T07:18:19.147Z,22.87
2019-01-25T07:20:45.178Z,16.80
2019-01-25T07:23:11.408Z,18.13
2019-01-25T07:25:37.489Z,13.93
2019-01-25T07:28:03.552Z,15.93
2019-01-25T07:30:32.212Z,12.70
2019-01-25T07:32:58.488Z,12.53
2019-01-25T07:35:24.396Z,11.37
2019-01-25T07:37:50.324Z,15.73
2019-01-25T07:40:17.317Z,22.73
2019-01-25T07:42:43.309Z,15.97
2019-01-25T07:45:11.013Z,16.50
2019-01-25T07:47:37.730Z,23.53
2019-01-25T07:50:09.875Z,15.40
2019-01-25T07:52:35.942Z,15.80
2019-01-25T07:55:02.928Z,12.63
2019-01-25T07:57:28.889Z,13.23
2019-01-25T07:59:54.904Z,13.20
2019-01-25T08:02:20.903Z,12.20
2019-01-25T08:04:48.005Z,12.10
2019-01-25T08:07:14.193Z,12.47
2019-01-25T08:09:40.146Z,13.30
2019-01-25T08:12:07.504Z,12.63
2019-01-25T08:14:34.096Z,10.87
2019-01-25T08:17:00.053Z,11.97
2019-01-25T08:19:26.459Z,21.53
2019-01-25T08:21:52.410Z,15.80
2019-01-25T08:24:18.426Z,10.87
2019-01-25T08:26:44.417Z,12.80
2019-01-25T08:29:10.540Z,12.93
2019-01-25T08:31:36.754Z,14.40
2019-01-25T08:34:03.171Z,13.90
2019-01-25T08:36:29.383Z,17.17
2019-01-25T08:38:55.993Z,30.60
2019-01-25T08:41:22.842Z,24.97
2019-01-25T08:43:48.842Z,15.03
2019-01-25T08:46:14.821Z,29.23
2019-01-25T08:48:40.730Z,17.07
2019-01-25T08:51:06.649Z,17.07
2019-01-25T08:53:32.711Z,14.17
2019-01-25T08:55:58.685Z,14.70
2019-01-25T08:58:24.644Z,15.17
2019-01-25T09:00:51.846Z,14.50
2019-01-25T09:03:18.004Z,16.90
2019-01-25T09:05:44.227Z,15.77
2019-01-25T09:08:10.305Z,13.77
2019-01-25T09:10:36.234Z,13.67
2019-01-25T09:13:02.159Z,16.40
2019-01-25T09:15:30.650Z,20.87
2019-01-25T09:17:56.588Z,21.67
2019-01-25T09:20:22.711Z,18.53
2019-01-25T09:22:48.669Z,17.93
2019-01-25T09:25:15.595Z,19.63
2019-01-25T09:27:41.541Z,16.53
2019-01-25T09:30:11.009Z,13.43
2019-01-25T09:32:37.242Z,14.90
2019-01-25T09:35:04.075Z,12.23
2019-01-25T09:37:30.152Z,12.23
2019-01-25T09:39:56.119Z,13.37
2019-01-25T09:42:22.111Z,13.93
2019-01-25T09:44:48.282Z,12.93
2019-01-25T09:47:14.212Z,10.27
2019-01-25T09:49:42.062Z,9.93
2019-01-25T09:52:08.228Z,11.03
2019-01-25T09:54:34.177Z,13.53
2019-01-25T09:57:01.317Z,11.37
2019-01-25T09:59:27.316Z,11.57
2019-01-25T10:01:53.244Z,14.83
2019-01-25T10:04:19.268Z,13.70
2019-01-25T10:06:46.429Z,12.13
2019-01-25T10:09:12.431Z,12.63
2019-01-25T10:11:38.408Z,10.50
2019-01-25T10:14:04.679Z,7.80
2019-01-25T10:16:31.419Z,10.57
2019-01-25T10:18:59.285Z,9.80
2019-01-25T10:21:25.272Z,9.50
2019-01-25T10:23:51.212Z,10.07
2019-01-25T10:26:17.139Z,13.63
2019-01-25T10:28:43.093Z,9.93
2019-01-25T10:31:09.431Z,12.23
2019-01-25T10:33:35.616Z,9.53
2019-01-25T10:36:02.693Z,16.30
2019-01-25T10:38:28.637Z,27.93
2019-01-25T10:40:54.562Z,10.50
2019-01-25T10:43:20.861Z,9.10
2019-01-25T10:45:47.278Z,11.07
2019-01-25T10:48:13.321Z,8.73
2019-01-25T10:50:40.163Z,12.87
2019-01-25T10:53:09.832Z,15.17
2019-01-25T10:55:35.902Z,11.23
2019-01-25T10:58:03.195Z,11.83
2019-01-25T11:00:29.405Z,11.93
2019-01-25T11:02:58.413Z,13.37
2019-01-25T11:05:27.245Z,18.07
2019-01-25T11:07:53.198Z,10.93
2019-01-25T11:10:19.120Z,10.93
2019-01-25T11:12:45.590Z,9.67
2019-01-25T11:15:14.843Z,10.80
2019-01-25T11:17:41.743Z,8.83
2019-01-25T11:20:11.062Z,12.30
2019-01-25T11:22:36.986Z,12.23
2019-01-25T11:25:06.712Z,14.23
2019-01-25T11:27:32.917Z,12.37
2019-01-25T11:30:11.767Z,11.33
2019-01-25T11:32:37.723Z,12.53
2019-01-25T11:35:04.768Z,14.47
2019-01-25T11:37:31.209Z,12.37
2019-01-25T11:39:57.184Z,12.73
2019-01-25T11:42:24.008Z,13.00
2019-01-25T11:44:50.196Z,11.27
2019-01-25T11:47:19.242Z,12.73
2019-01-25T11:49:45.473Z,16.13
2019-01-25T11:52:11.461Z,15.40
2019-01-25T11:54:37.445Z,12.63
2019-01-25T11:57:03.399Z,12.40
2019-01-25T11:59:30.324Z,15.20
2019-01-25T12:01:56.593Z,12.60
2019-01-25T12:04:22.533Z,11.97
2019-01-25T12:06:48.467Z,12.50
2019-01-25T12:09:14.460Z,13.37
2019-01-25T12:11:40.595Z,13.00
2019-01-25T12:14:06.524Z,15.77
2019-01-25T12:16:32.712Z,17.33
2019-01-25T12:18:59.060Z,24.93
2019-01-25T12:21:25.003Z,17.30
2019-01-25T12:23:51.071Z,13.30
2019-01-25T12:26:17.010Z,13.27
2019-01-25T12:28:44.630Z,21.77
2019-01-25T12:31:10.618Z,17.17
2019-01-25T12:33:36.549Z,11.77
2019-01-25T12:36:02.702Z,11.13
2019-01-25T12:38:28.651Z,13.37
2019-01-25T12:40:55.007Z,20.03
2019-01-25T12:43:24.198Z,20.93
2019-01-25T12:45:52.828Z,14.33
2019-01-25T12:48:18.755Z,13.90
2019-01-25T12:50:49.170Z,12.90
2019-01-25T12:53:15.502Z,13.70
2019-01-25T12:55:41.520Z,15.47
2019-01-25T12:58:07.885Z,14.47
2019-01-25T13:00:34.401Z,14.03
2019-01-25T13:03:00.333Z,16.47
2019-01-25T13:05:26.587Z,18.53
2019-01-25T13:07:52.549Z,18.27
2019-01-25T13:10:21.318Z,17.80
2019-01-25T13:12:47.452Z,17.03
2019-01-25T13:15:13.642Z,18.70
2019-01-25T13:17:39.693Z,18.77
2019-01-25T13:20:09.427Z,19.17
2019-01-25T13:22:35.776Z,17.40
2019-01-25T13:25:01.705Z,17.80
2019-01-25T13:27:27.643Z,18.57
2019-01-25T13:29:53.604Z,20.03
2019-01-25T13:32:19.532Z,20.00
2019-01-25T13:34:45.671Z,19.43
2019-01-25T13:37:11.675Z,18.80
2019-01-25T13:39:37.921Z,18.87
2019-01-25T13:42:03.865Z,20.17
2019-01-25T13:44:30.394Z,19.33
2019-01-25T13:46:56.513Z,21.97
2019-01-25T13:49:22.487Z,22.80
2019-01-25T13:51:48.472Z,21.53
2019-01-25T13:54:14.393Z,25.13
2019-01-25T13:56:40.736Z,25.97
2019-01-25T13:59:07.848Z,26.90
2019-01-25T14:01:34.676Z,26.53
2019-01-25T14:04:00.925Z,40.60
2019-01-25T14:06:26.888Z,23.70
2019-01-25T14:08:52.832Z,53.40
2019-01-25T14:11:18.768Z,75.20
2019-01-25T14:13:46.911Z,29.70
2019-01-25T14:16:12.591Z,49.87
2019-01-25T14:18:38.521Z,17.57
2019-01-25T14:21:04.523Z,18.30
2019-01-25T14:23:30.458Z,22.00
2019-01-25T14:25:56.442Z,19.10
2019-01-25T14:28:22.412Z,20.63
2019-01-25T14:30:49.060Z,22.17
2019-01-25T14:33:15.098Z,25.77
2019-01-25T14:35:41.900Z,24.50
2019-01-25T14:38:08.032Z,34.20
2019-01-25T14:40:34.363Z,30.97
2019-01-25T14:43:00.376Z,34.30
2019-01-25T14:45:26.607Z,37.73
2019-01-25T14:47:53.511Z,37.23
2019-01-25T14:50:28.782Z,35.30
2019-01-25T14:52:54.717Z,25.40
2019-01-25T14:55:20.644Z,23.60
2019-01-25T14:57:46.608Z,23.03
2019-01-25T15:00:14.349Z,24.10
2019-01-25T15:02:40.295Z,41.77
2019-01-25T15:05:12.530Z,53.90
2019-01-25T15:07:38.477Z,40.33
2019-01-25T15:10:08.210Z,31.97
2019-01-25T15:12:34.363Z,28.30
2019-01-25T15:15:00.603Z,28.47
2019-01-25T15:17:26.523Z,22.40
2019-01-25T15:19:52.504Z,26.53
2019-01-25T15:22:18.635Z,34.10
2019-01-25T15:24:44.878Z,21.47
2019-01-25T15:27:11.768Z,21.13
2019-01-25T15:29:37.688Z,19.63
2019-01-25T15:32:03.814Z,22.13
2019-01-25T15:34:29.903Z,22.83
2019-01-25T15:36:55.840Z,24.03
2019-01-25T15:39:21.770Z,19.07
2019-01-25T15:41:48.211Z,16.13
2019-01-25T15:44:14.482Z,18.43
2019-01-25T15:46:40.434Z,24.40
2019-01-25T15:49:07.167Z,36.50
2019-01-25T15:51:33.521Z,47.20
2019-01-25T15:53:59.424Z,29.60
2019-01-25T15:56:25.379Z,37.00
2019-01-25T15:58:51.307Z,22.70
2019-01-25T16:01:17.743Z,22.93
2019-01-25T16:03:44.027Z,30.40
2019-01-25T16:06:10.377Z,30.17
2019-01-25T16:08:36.309Z,22.93
2019-01-25T16:11:03.341Z,19.53
2019-01-25T16:13:29.598Z,23.50
2019-01-25T16:15:55.598Z,29.07
2019-01-25T16:18:21.691Z,22.43
2019-01-25T16:20:48.256Z,25.33
2019-01-25T16:23:14.189Z,24.07
2019-01-25T16:25:40.152Z,22.23
2019-01-25T16:28:06.126Z,20.57
2019-01-25T16:30:33.956Z,22.00
2019-01-25T16:33:00.299Z,22.10
2019-01-25T16:35:29.342Z,57.17
2019-01-25T16:37:55.827Z,36.70
2019-01-25T16:40:25.224Z,44.53
2019-01-25T16:42:51.165Z,34.63
2019-01-25T16:45:22.849Z,29.57
2019-01-25T16:47:53.645Z,41.17
2019-01-25T16:50:23.794Z,31.80
2019-01-25T16:52:54.816Z,34.57
2019-01-25T16:55:23.314Z,28.93
2019-01-25T16:57:49.550Z,31.27
2019-01-25T17:00:21.476Z,27.07
2019-01-25T17:02:47.659Z,23.20
2019-01-25T17:05:14.019Z,25.07
2019-01-25T17:07:39.947Z,25.33
2019-01-25T17:10:13.720Z,26.03
2019-01-25T17:12:44.238Z,26.13
2019-01-25T17:15:13.923Z,24.57
2019-01-25T17:17:39.942Z,32.83
2019-01-25T17:20:08.989Z,33.17
2019-01-25T17:22:34.917Z,38.93
2019-01-25T17:25:00.889Z,37.87
2019-01-25T17:27:26.827Z,34.60
2019-01-25T17:29:52.763Z,30.10
2019-01-25T17:32:19.039Z,30.43
2019-01-25T17:34:44.992Z,28.67
2019-01-25T17:37:11.131Z,28.57
2019-01-25T17:39:37.276Z,29.57
2019-01-25T17:42:03.723Z,31.43
2019-01-25T17:44:29.671Z,32.43
2019-01-25T17:46:55.674Z,26.70
2019-01-25T17:49:21.964Z,24.20
2019-01-25T17:51:47.961Z,32.83
2019-01-25T17:54:13.917Z,39.33
2019-01-25T17:56:44.660Z,29.13
2019-01-25T17:59:10.610Z,31.03
2019-01-25T18:01:36.597Z,24.63
2019-01-25T18:04:04.273Z,24.97
2019-01-25T18:06:30.440Z,28.37
2019-01-25T18:08:56.741Z,35.13
2019-01-25T18:11:23.784Z,46.33
2019-01-25T18:13:51.031Z,34.63
2019-01-25T18:16:17.236Z,27.43
2019-01-25T18:18:43.194Z,35.70
2019-01-25T18:21:10.010Z,46.97
2019-01-25T18:23:36.025Z,34.37
2019-01-25T18:26:02.056Z,49.70
2019-01-25T18:28:31.809Z,41.60
2019-01-25T18:31:04.647Z,40.30
2019-01-25T18:33:30.592Z,33.17
2019-01-25T18:35:56.534Z,29.73
2019-01-25T18:38:22.621Z,34.10
2019-01-25T18:40:48.581Z,63.53
2019-01-25T18:43:15.216Z,26.63
2019-01-25T18:45:42.435Z,49.40
2019-01-25T18:48:08.373Z,33.03
2019-01-25T18:50:34.433Z,52.43
2019-01-25T18:53:00.746Z,42.67
2019-01-25T18:55:26.724Z,47.87
2019-01-25T18:57:52.671Z,59.40
2019-01-25T19:00:21.324Z,54.63
2019-01-25T19:02:47.285Z,35.57
2019-01-25T19:05:15.424Z,41.03
2019-01-25T19:07:42.469Z,37.00
2019-01-25T19:10:26.287Z,33.87
2019-01-25T19:12:52.261Z,27.67
2019-01-25T19:15:22.208Z,30.00
2019-01-25T19:17:48.258Z,28.00
2019-01-25T19:20:15.194Z,52.40
2019-01-25T19:22:41.130Z,33.47
2019-01-25T19:25:09.593Z,28.40
2019-01-25T19:27:35.600Z,29.00
2019-01-25T19:30:04.754Z,34.43
2019-01-25T19:32:30.711Z,36.17
2019-01-25T19:34:56.754Z,36.57
2019-01-25T19:37:24.495Z,31.73
2019-01-25T19:39:50.759Z,34.57
2019-01-25T19:42:16.780Z,34.03
2019-01-25T19:44:42.714Z,20.93
2019-01-25T19:47:08.646Z,29.37
2019-01-25T19:49:39.620Z,26.80
2019-01-25T19:52:05.793Z,24.47
2019-01-25T19:54:32.029Z,42.77
2019-01-25T19:56:58.602Z,37.83
2019-01-25T19:59:26.788Z,35.23
2019-01-25T20:01:52.934Z,31.83
2019-01-25T20:04:18.990Z,33.43
2019-01-25T20:06:45.042Z,28.73
2019-01-25T20:09:11.059Z,26.27
2019-01-25T20:11:37.808Z,28.83
2019-01-25T20:14:06.626Z,32.47
2019-01-25T20:16:37.290Z,26.50
2019-01-25T20:19:03.640Z,24.70
2019-01-25T20:21:29.982Z,26.83
2019-01-25T20:23:57.058Z,27.10
2019-01-25T20:26:23.420Z,28.13
2019-01-25T20:28:49.463Z,26.37
2019-01-25T20:31:15.499Z,20.90
2019-01-25T20:33:41.658Z,24.73
2019-01-25T20:36:08.681Z,26.10
2019-01-25T20:38:45.265Z,22.03
2019-01-25T20:41:11.290Z,25.97
2019-01-25T20:43:37.228Z,27.50
2019-01-25T20:46:06.284Z,27.33
2019-01-25T20:48:32.384Z,29.17
2019-01-25T20:50:58.308Z,27.33
2019-01-25T20:53:24.669Z,27.73
2019-01-25T20:55:54.433Z,25.77
2019-01-25T20:58:20.378Z,25.17
2019-01-25T21:00:46.425Z,26.77
2019-01-25T21:03:14.004Z,28.23
2019-01-25T21:05:40.273Z,24.53
2019-01-25T21:08:06.217Z,28.97
2019-01-25T21:10:32.205Z,28.07
2019-01-25T21:12:58.276Z,26.23
2019-01-25T21:15:26.120Z,27.33
2019-01-25T21:17:52.649Z,26.53
2019-01-25T21:20:27.392Z,26.33
2019-01-25T21:22:53.333Z,25.60
2019-01-25T21:25:19.427Z,24.53
2019-01-25T21:27:45.397Z,22.90
2019-01-25T21:30:17.566Z,24.40
2019-01-25T21:32:43.732Z,24.90
2019-01-25T21:35:09.968Z,24.10
2019-01-25T21:37:36.214Z,49.03
2019-01-25T21:40:08.556Z,25.93
2019-01-25T21:42:33.846Z,25.53
2019-01-25T21:44:59.847Z,26.90
2019-01-25T21:47:25.824Z,28.17
2019-01-25T21:49:54.798Z,28.83
2019-01-25T21:52:22.640Z,25.13
2019-01-25T21:54:50.045Z,22.27
2019-01-25T21:57:16.050Z,22.23
2019-01-25T21:59:41.998Z,22.67
2019-01-25T22:02:08.269Z,28.03
2019-01-25T22:04:34.405Z,27.67
2019-01-25T22:07:02.394Z,24.47
2019-01-25T22:09:28.405Z,29.57
2019-01-25T22:11:54.389Z,25.77
2019-01-25T22:14:20.413Z,29.80
2019-01-25T22:16:46.516Z,26.33
2019-01-25T22:19:12.459Z,27.37
2019-01-25T22:21:38.525Z,33.57
2019-01-25T22:24:04.660Z,36.23
2019-01-25T22:26:32.130Z,29.47
2019-01-25T22:28:58.125Z,33.57
2019-01-25T22:31:24.086Z,22.40
2019-01-25T22:33:50.089Z,24.03
2019-01-25T22:36:16.204Z,29.27
2019-01-25T22:38:42.517Z,23.27
2019-01-25T22:41:08.456Z,32.77
2019-01-25T22:43:34.499Z,21.23
2019-01-25T22:46:13.100Z,28.07
2019-01-25T22:48:39.042Z,23.67
2019-01-25T22:51:05.206Z,22.60
2019-01-25T22:53:31.204Z,23.37
2019-01-25T22:55:57.131Z,23.33
2019-01-25T22:58:26.919Z,21.70
2019-01-25T23:01:06.413Z,28.30
2019-01-25T23:03:40.043Z,25.53
2019-01-25T23:06:33.625Z,24.13
2019-01-25T23:09:05.176Z,22.70
2019-01-25T23:11:35.797Z,25.83
2019-01-25T23:14:16.306Z,25.57
2019-01-25T23:16:47.299Z,24.03
2019-01-25T23:19:14.982Z,23.00
2019-01-25T23:21:41.312Z,21.03
2019-01-25T23:24:10.263Z,31.17
2019-01-25T23:26:42.560Z,25.83
2019-01-25T23:29:08.617Z,23.93
2019-01-25T23:31:38.693Z,26.03
2019-01-25T23:34:08.030Z,22.87
2019-01-25T23:36:35.420Z,20.90
2019-01-25T23:39:06.043Z,21.77
2019-01-25T23:41:33.672Z,23.87
2019-01-25T23:43:59.616Z,24.13
2019-01-25T23:46:30.803Z,23.33
2019-01-25T23:48:56.766Z,20.60
2019-01-25T23:51:27.664Z,24.43
2019-01-25T23:53:57.509Z,23.07
2019-01-25T23:56:28.038Z,24.10
2019-01-25T23:58:55.549Z,25.77
